Time;durP1;ratioP1;P1;durP2;ratioP2;P2;SDS_P1;SDS_P2;PMS_P1;PMS_P2;Temp;Humidity;BMP_temperature;BMP_pressure;BME280_temperature;BME280_humidity;BME280_pressure;Samples;Min_cycle;Max_cycle;Signal;HPM_P1;HPM_P2
2022/12/18 00:02:37;;;;;;;80.30;38.20;;;;;;;-4.26;40.94;99176.25;8315556;28;20151;-72
2022/12/18 00:06:39;;;;;;;72.90;47.88;;;;;;;-3.70;39.95;99180.59;8313605;28;20416;-72
2022/12/18 00:10:45;;;;;;;70.50;39.40;;;;;;;-4.17;42.40;99168.97;8315210;28;20487;-73
2022/12/18 00:14:48;;;;;;;68.80;38.83;;;;;;;-4.12;43.75;99169.97;8315521;28;20406;-72
2022/12/18 00:18:51;;;;;;;67.13;37.20;;;;;;;-3.88;43.28;99171.59;8314942;28;20530;-73
2022/12/18 00:22:55;;;;;;;67.10;38.80;;;;;;;-4.07;42.94;99164.19;8314699;28;20226;-73
2022/12/18 00:26:59;;;;;;;70.33;39.57;;;;;;;-4.05;42.75;99165.97;8314273;28;20234;-73
2022/12/18 00:31:02;;;;;;;68.60;38.87;;;;;;;-3.96;42.90;99170.47;8314714;28;20234;-73
2022/12/18 00:35:06;;;;;;;74.00;38.37;;;;;;;-3.93;41.73;99165.50;8314955;28;20336;-73
2022/12/18 00:39:11;;;;;;;73.55;45.03;;;;;;;-3.83;41.53;99175.09;8313826;28;20499;-73
2022/12/18 00:43:15;;;;;;;74.50;47.80;;;;;;;-3.50;40.42;99173.59;8313327;28;20400;-73
2022/12/18 00:47:18;;;;;;;76.40;43.17;;;;;;;-4.54;41.26;99079.19;8314031;28;20227;-73
2022/12/18 00:51:21;;;;;;;73.40;40.83;;;;;;;-4.28;41.28;99150.03;8314185;28;20234;-73
2022/12/18 00:55:23;;;;;;;75.90;41.40;;;;;;;-3.96;41.75;99163.75;8313836;28;20274;-73
2022/12/18 00:59:28;;;;;;;77.47;40.90;;;;;;;-4.05;41.61;99160.06;8314095;28;20242;-73
2022/12/18 01:03:31;;;;;;;80.20;41.23;;;;;;;-4.33;41.63;99165.03;8313905;28;20464;-73
2022/12/18 01:07:33;;;;;;;80.87;40.40;;;;;;;-4.34;40.77;99121.97;8313811;28;20226;-73
2022/12/18 01:11:36;;;;;;;87.70;41.90;;;;;;;-3.95;40.61;99195.81;8313642;28;20514;-73
2022/12/18 01:15:40;;;;;;;85.57;42.40;;;;;;;-4.07;40.79;99199.59;8313653;28;20229;-73
2022/12/18 01:19:43;;;;;;;81.47;40.23;;;;;;;-4.16;41.13;99188.38;8313551;28;20230;-73
2022/12/18 01:23:46;;;;;;;81.17;38.67;;;;;;;-4.26;40.76;99177.91;8313495;28;20226;-73
2022/12/18 01:27:49;;;;;;;77.13;39.27;;;;;;;-4.56;41.81;99199.66;8313143;28;20296;-73
2022/12/18 01:31:55;;;;;;;74.85;47.75;;;;;;;-3.84;39.87;99208.84;8311338;28;20416;-73
2022/12/18 01:35:58;;;;;;;77.13;41.30;;;;;;;-4.07;41.12;99205.56;8312314;28;20241;-73
2022/12/18 01:40:01;;;;;;;73.87;39.93;;;;;;;-4.22;41.24;99216.00;8312477;28;20235;-73
2022/12/18 01:44:36;;;;;;;73.23;39.07;;;;;;;-4.22;40.92;99220.22;8312978;28;20230;-72
2022/12/18 01:48:43;;;;;;;66.47;36.47;;;;;;;-4.34;39.52;99221.50;8312408;28;20230;-73
2022/12/18 01:52:48;;;;;;;68.70;36.80;;;;;;;-4.20;40.09;99223.66;8312731;28;20232;-73
2022/12/18 01:56:50;;;;;;;67.00;36.03;;;;;;;-4.31;40.39;99223.28;8312575;28;20231;-72
2022/12/18 02:00:55;;;;;;;64.40;35.77;;;;;;;-4.32;40.46;99219.03;8312220;28;20292;-73
2022/12/18 02:04:59;;;;;;;70.17;36.37;;;;;;;-4.65;41.03;99226.25;8312407;28;20238;-73
2022/12/18 02:09:08;;;;;;;60.23;34.73;;;;;;;-4.52;40.20;99218.31;8312676;28;20464;-73
2022/12/18 02:13:18;;;;;;;62.30;33.17;;;;;;;-4.46;40.00;99227.78;8312282;28;20238;-73
2022/12/18 02:17:22;;;;;;;64.33;35.13;;;;;;;-4.59;40.31;99226.47;8312274;28;20226;-72
2022/12/18 02:21:33;;;;;;;64.37;35.57;;;;;;;-4.41;40.54;99221.25;8312242;28;20229;-72
2022/12/18 02:25:55;;;;;;;70.43;37.53;;;;;;;-4.56;40.74;99209.75;8312132;28;20234;-72
2022/12/18 02:30:00;;;;;;;69.57;43.80;;;;;;;-4.28;40.60;99219.97;8310863;28;20421;-72
2022/12/18 02:34:05;;;;;;;69.57;38.00;;;;;;;-4.26;41.02;99223.44;8312282;28;20233;-72
2022/12/18 02:38:08;;;;;;;70.33;37.83;;;;;;;-4.33;41.38;99223.22;8311920;28;20230;-72
2022/12/18 02:42:13;;;;;;;69.53;37.73;;;;;;;-4.48;41.82;99239.53;8311957;28;20230;-74
2022/12/18 02:46:32;;;;;;;64.93;35.43;;;;;;;-4.19;42.18;99250.66;8311831;28;20518;-74
2022/12/18 02:50:37;;;;;;;59.87;33.70;;;;;;;-4.10;43.17;99237.47;8316589;28;20233;-74
2022/12/18 02:54:49;;;;;;;56.10;30.87;;;;;;;-4.23;44.24;99237.03;8318129;28;20296;-74
2022/12/18 02:58:59;;;;;;;54.90;31.17;;;;;;;-3.99;44.57;99238.72;8317168;28;20246;-74
2022/12/18 03:03:06;;;;;;;54.83;37.50;;;;;;;-3.52;43.83;99234.34;8315828;28;20432;-73
2022/12/18 03:07:11;;;;;;;54.43;30.77;;;;;;;-3.88;45.90;99196.03;8317377;28;20234;-72
2022/12/18 03:11:15;;;;;;;48.17;28.57;;;;;;;-3.73;46.63;99214.28;8317330;28;20226;-72
2022/12/18 03:15:22;;;;;;;51.70;28.00;;;;;;;-3.60;48.01;99215.50;8316873;28;20222;-72
2022/12/18 03:19:27;;;;;;;55.60;28.53;;;;;;;-3.47;48.52;99217.63;8316712;28;20230;-73
2022/12/18 03:23:34;;;;;;;66.63;29.63;;;;;;;-3.65;50.16;99237.31;8317126;28;20230;-73
2022/12/18 03:27:38;;;;;;;68.57;29.13;;;;;;;-3.59;50.50;99219.78;8316758;28;20226;-73
2022/12/18 03:31:46;;;;;;;60.50;30.17;;;;;;;-3.49;51.29;99239.50;8316576;28;20222;-73
2022/12/18 03:35:49;;;;;;;64.10;28.70;;;;;;;-3.30;51.24;99250.22;8316714;28;20533;-73
2022/12/18 03:39:51;;;;;;;63.67;29.67;;;;;;;-3.31;51.75;99236.72;8316558;28;20234;-73
2022/12/18 03:43:58;;;;;;;62.60;31.20;;;;;;;-3.53;52.49;99246.13;8315702;28;20421;-73
2022/12/18 03:48:05;;;;;;;65.37;29.80;;;;;;;-3.24;51.62;99246.19;8315545;28;20446;-73
2022/12/18 03:52:10;;;;;;;64.37;29.40;;;;;;;-3.22;51.57;99231.03;8315798;28;20234;-73
2022/12/18 03:56:14;;;;;;;69.83;31.70;;;;;;;-2.96;51.21;99241.97;8315250;28;20226;-73
2022/12/18 04:00:20;;;;;;;63.97;30.27;;;;;;;-2.99;51.53;99235.16;8314638;28;20254;-73
2022/12/18 04:04:26;;;;;;;70.60;32.57;;;;;;;-3.11;51.79;99252.50;8315588;28;20230;-73
2022/12/18 04:08:29;;;;;;;62.07;31.10;;;;;;;-3.23;52.68;99250.47;8315277;28;20415;-73
2022/12/18 04:12:32;;;;;;;69.93;32.23;;;;;;;-3.42;52.40;99266.75;8314897;28;20253;-73
2022/12/18 04:16:34;;;;;;;67.07;30.50;;;;;;;-3.27;52.17;99261.31;8314691;28;20230;-73
2022/12/18 04:20:39;;;;;;;61.97;28.77;;;;;;;-3.12;51.82;99267.66;8314904;28;20284;-73
2022/12/18 04:24:41;;;;;;;62.77;30.10;;;;;;;-2.97;50.86;99266.47;8315060;28;20222;-73
2022/12/18 04:28:44;;;;;;;56.53;28.93;;;;;;;-3.84;53.32;99263.69;8314684;28;20230;-73
2022/12/18 04:32:47;;;;;;;61.07;29.50;;;;;;;-3.01;50.68;99272.28;8314632;28;20239;-73
2022/12/18 04:36:55;;;;;;;55.67;27.50;;;;;;;-2.97;50.97;99273.19;8314025;28;20513;-73
2022/12/18 04:40:58;;;;;;;50.33;25.10;;;;;;;-2.97;51.06;99271.56;8314447;28;20230;-73
2022/12/18 04:45:01;;;;;;;45.03;23.67;;;;;;;-2.65;50.08;99265.72;8314066;28;20242;-73
2022/12/18 04:49:04;;;;;;;42.70;22.87;;;;;;;-2.89;51.00;99264.19;8314072;28;20230;-73
2022/12/18 04:53:09;;;;;;;39.93;22.33;;;;;;;-2.89;51.43;99261.66;8313871;28;20238;-73
2022/12/18 04:57:11;;;;;;;41.27;22.07;;;;;;;-2.64;51.60;99259.84;8313956;28;20231;-73
2022/12/18 05:01:16;;;;;;;40.60;22.40;;;;;;;-3.46;54.07;99253.97;8313664;28;20540;-73
2022/12/18 05:05:19;;;;;;;37.50;20.67;;;;;;;-3.75;55.13;99259.78;8313675;28;20230;-73
2022/12/18 05:09:24;;;;;;;37.03;20.70;;;;;;;-3.11;53.65;99249.97;8313702;28;20241;-73
2022/12/18 05:13:27;;;;;;;36.73;21.30;;;;;;;-2.75;52.74;99249.38;8313412;28;20381;-73
2022/12/18 05:17:29;;;;;;;36.43;20.63;;;;;;;-3.21;54.82;99268.25;8313419;28;20333;-73
2022/12/18 05:21:32;;;;;;;36.00;20.37;;;;;;;-2.58;52.27;99272.69;8312784;28;20226;-72
2022/12/18 05:25:37;;;;;;;33.93;19.77;;;;;;;-2.96;53.23;99280.84;8313133;28;20230;-73
2022/12/18 05:29:39;;;;;;;37.07;20.83;;;;;;;-2.90;54.97;99279.34;8313159;28;20415;-73
2022/12/18 05:33:43;;;;;;;38.87;21.47;;;;;;;-2.73;53.43;99270.56;8312978;28;20237;-73
2022/12/18 05:37:46;;;;;;;40.30;21.20;;;;;;;-2.92;54.40;99279.28;8312940;28;20229;-73
2022/12/18 05:41:50;;;;;;;36.47;20.20;;;;;;;-2.87;54.38;99272.69;8312805;28;20338;-73
2022/12/18 05:45:53;;;;;;;33.50;19.20;;;;;;;-3.00;56.23;99281.59;8312104;28;20230;-73
2022/12/18 05:49:56;;;;;;;34.83;19.77;;;;;;;-3.22;55.67;99272.47;8312692;28;20234;-73
2022/12/18 05:53:58;;;;;;;36.60;20.23;;;;;;;-2.88;55.23;99252.34;8312699;28;20230;-73
2022/12/18 05:58:03;;;;;;;36.93;19.63;;;;;;;-3.21;56.04;99276.72;8312695;28;20506;-73
2022/12/18 06:02:06;;;;;;;36.50;19.90;;;;;;;-3.15;56.81;99243.94;8311977;28;20304;-73
2022/12/18 06:06:15;;;;;;;36.17;19.73;;;;;;;-2.86;55.28;99287.06;8312345;28;20230;-73
2022/12/18 06:10:18;;;;;;;34.60;20.10;;;;;;;-2.46;55.21;99300.06;8312450;28;20226;-73
2022/12/18 06:14:22;;;;;;;38.13;19.87;;;;;;;-3.05;57.06;99288.19;8312058;28;20231;-73
2022/12/18 06:18:25;;;;;;;38.07;20.87;;;;;;;-2.88;56.10;99288.69;8311940;28;20237;-72
2022/12/18 06:22:28;;;;;;;38.10;20.10;;;;;;;-2.79;55.67;99295.75;8312006;28;20233;-72
2022/12/18 06:26:31;;;;;;;36.03;19.80;;;;;;;-3.05;55.95;99292.41;8318482;28;20234;-72
2022/12/18 06:30:36;;;;;;;37.90;20.73;;;;;;;-3.24;57.29;99296.88;8318274;28;20238;-72
2022/12/18 06:34:39;;;;;;;36.50;20.70;;;;;;;-3.36;56.08;99299.03;8318427;28;20445;-72
2022/12/18 06:38:43;;;;;;;36.90;20.03;;;;;;;-3.02;55.80;99303.50;8318305;28;20234;-73
2022/12/18 06:42:46;;;;;;;37.47;20.27;;;;;;;-3.04;55.13;99292.44;8318087;28;20237;-73
2022/12/18 06:46:50;;;;;;;35.03;19.53;;;;;;;-2.91;55.40;99311.44;8317526;28;20544;-73
2022/12/18 06:50:54;;;;;;;35.10;19.87;;;;;;;-2.77;55.07;99309.31;8317343;28;20234;-73
2022/12/18 06:54:57;;;;;;;33.97;19.27;;;;;;;-2.65;54.48;99324.88;8317493;28;20296;-72
2022/12/18 06:59:00;;;;;;;37.63;20.73;;;;;;;-2.46;53.51;99328.84;8317220;28;20230;-72
2022/12/18 07:03:04;;;;;;;34.93;19.30;;;;;;;-2.75;54.32;99318.69;8316998;28;20437;-72
2022/12/18 07:07:06;;;;;;;37.77;21.13;;;;;;;-2.52;54.77;99320.19;8316825;28;20567;-72
2022/12/18 07:11:09;;;;;;;34.90;19.73;;;;;;;-2.47;54.25;99298.38;8317275;28;20242;-72
2022/12/18 07:15:12;;;;;;;33.10;19.30;;;;;;;-2.02;53.24;99300.47;8316615;28;20238;-72
2022/12/18 07:19:16;;;;;;;34.10;19.93;;;;;;;-2.48;54.78;99299.19;8316691;28;20237;-72
2022/12/18 07:23:19;;;;;;;33.10;19.07;;;;;;;-1.88;53.27;99299.16;8316568;28;20234;-73
2022/12/18 07:27:22;;;;;;;34.90;20.10;;;;;;;-2.13;54.77;99301.84;8316498;28;20222;-73
2022/12/18 07:31:26;;;;;;;37.47;20.57;;;;;;;-2.18;55.29;99300.03;8316432;28;20231;-72
2022/12/18 07:35:30;;;;;;;34.23;19.93;;;;;;;-1.86;54.64;99306.84;8315085;28;20230;-73
2022/12/18 07:39:33;;;;;;;35.47;20.20;;;;;;;-1.89;55.61;99311.81;8316208;28;20251;-72
2022/12/18 07:43:37;;;;;;;42.67;21.27;;;;;;;-1.60;55.16;99326.16;8315799;28;20544;-72
2022/12/18 07:47:41;;;;;;;37.47;20.87;;;;;;;-1.86;55.94;99342.38;8315416;28;20291;-72
2022/12/18 07:51:48;;;;;;;37.50;20.07;;;;;;;-1.76;56.35;99344.34;8315844;28;20522;-72
2022/12/18 07:55:56;;;;;;;36.93;20.93;;;;;;;-1.57;55.87;99351.63;8315421;28;20234;-72
2022/12/18 08:00:19;;;;;;;39.13;21.27;;;;;;;-1.23;54.97;99351.66;8315227;28;20226;-72
2022/12/18 08:04:23;;;;;;;41.80;21.93;;;;;;;-1.22;54.74;99350.81;8315197;28;20242;-71
2022/12/18 08:08:27;;;;;;;39.33;22.87;;;;;;;-1.35;56.08;99347.13;8315218;28;20222;-72
2022/12/18 08:12:29;;;;;;;42.23;24.73;;;;;;;-1.32;56.71;99353.94;8315310;28;20234;-72
2022/12/18 08:16:32;;;;;;;39.20;21.70;;;;;;;-1.28;55.59;99343.88;8316014;28;20226;-73
2022/12/18 08:20:35;;;;;;;38.83;21.27;;;;;;;-0.94;55.92;99359.97;8316211;28;20495;-73
2022/12/18 08:24:39;;;;;;;42.33;23.57;;;;;;;-0.92;55.70;99360.03;8315922;28;20435;-73
2022/12/18 08:28:42;;;;;;;45.03;24.93;;;;;;;-1.03;55.77;99358.09;8316007;28;20226;-73
2022/12/18 08:32:45;;;;;;;41.27;23.23;;;;;;;-1.45;57.40;99348.53;8315571;28;20230;-73
2022/12/18 08:36:48;;;;;;;37.90;22.63;;;;;;;-1.21;57.95;99344.91;8315268;28;20435;-72
2022/12/18 08:40:58;;;;;;;37.77;21.40;;;;;;;-1.17;55.40;99293.31;8315117;28;20276;-73
2022/12/18 08:45:01;;;;;;;43.17;22.20;;;;;;;-0.45;55.60;99363.66;8313852;28;20561;-72
2022/12/18 08:49:05;;;;;;;40.80;22.53;;;;;;;-0.71;55.03;99291.81;8314442;28;20234;-73
2022/12/18 08:53:08;;;;;;;46.97;25.40;;;;;;;-0.47;54.79;99346.66;8314371;28;20226;-73
2022/12/18 08:57:12;;;;;;;35.43;21.00;;;;;;;-0.80;57.45;99345.03;8314589;28;20230;-72
2022/12/18 09:01:15;;;;;;;36.67;21.63;;;;;;;-0.62;56.57;99347.16;8314628;28;20296;-74
2022/12/18 09:05:18;;;;;;;41.43;23.33;;;;;;;-0.96;58.00;99348.91;8316129;28;20225;-74
2022/12/18 09:09:21;;;;;;;44.90;26.27;;;;;;;-0.79;58.63;99341.69;8314013;28;20227;-74
2022/12/18 09:13:25;;;;;;;40.60;23.47;;;;;;;-0.52;57.84;99348.22;8313385;28;20428;-74
2022/12/18 09:17:28;;;;;;;39.30;22.17;;;;;;;-1.23;59.76;99332.16;8312899;28;20249;-73
2022/12/18 09:21:32;;;;;;;39.47;21.83;;;;;;;-0.87;59.67;99338.09;8313333;28;20233;-73
2022/12/18 09:25:38;;;;;;;38.27;20.90;;;;;;;-0.99;59.86;99334.44;8311856;28;20565;-73
2022/12/18 09:29:42;;;;;;;38.47;21.80;;;;;;;-0.68;59.30;99344.47;8312998;28;20233;-73
2022/12/18 09:33:45;;;;;;;37.50;22.00;;;;;;;-1.14;61.11;99334.09;8312982;28;20413;-72
2022/12/18 09:37:48;;;;;;;35.43;21.73;;;;;;;-0.79;60.04;99327.28;8312559;28;20233;-73
2022/12/18 09:41:54;;;;;;;39.97;24.23;;;;;;;-0.60;58.88;99320.91;8312641;28;20332;-72
2022/12/18 09:46:02;;;;;;;36.30;21.23;;;;;;;-0.91;59.92;99319.38;8311895;28;20510;-72
2022/12/18 09:50:15;;;;;;;33.57;19.97;;;;;;;-0.93;60.52;99304.88;8312531;28;20238;-72
2022/12/18 09:54:23;;;;;;;33.57;20.63;;;;;;;0.02;57.51;99318.78;8312465;28;20233;-72
2022/12/18 09:58:29;;;;;;;33.70;20.37;;;;;;;-0.68;60.82;99330.06;8311771;28;20289;-73
2022/12/18 10:02:33;;;;;;;37.67;21.17;;;;;;;-0.44;59.48;99321.25;8312313;28;20415;-72
2022/12/18 10:06:40;;;;;;;39.17;22.17;;;;;;;-0.73;60.43;99306.19;8311787;28;20280;-73
2022/12/18 10:10:48;;;;;;;34.53;20.63;;;;;;;-0.35;59.89;99285.81;8312285;28;20533;-73
2022/12/18 10:14:54;;;;;;;37.23;21.70;;;;;;;-0.11;59.25;99300.72;8312118;28;20293;-73
2022/12/18 10:19:05;;;;;;;33.43;20.17;;;;;;;-0.78;60.04;99297.63;8311729;28;20234;-72
2022/12/18 10:23:14;;;;;;;33.80;19.97;;;;;;;-0.10;59.73;99293.94;8311681;28;20572;-71
2022/12/18 10:27:28;;;;;;;32.63;18.93;;;;;;;-0.13;58.88;99287.09;8311849;28;20226;-73
2022/12/18 10:31:31;;;;;;;32.27;19.23;;;;;;;-0.57;60.34;99303.97;8311867;28;20442;-72
2022/12/18 10:35:36;;;;;;;33.07;19.77;;;;;;;-0.29;58.62;99268.09;8311755;28;20253;-73
2022/12/18 10:39:39;;;;;;;30.97;19.30;;;;;;;-0.13;58.96;99298.94;8311816;28;20230;-73
2022/12/18 10:43:43;;;;;;;30.03;18.43;;;;;;;0.50;57.13;99308.66;8311602;28;20238;-73
2022/12/18 10:47:48;;;;;;;30.03;18.33;;;;;;;0.07;57.08;99300.19;8311284;28;20241;-74
2022/12/18 10:51:52;;;;;;;29.17;17.87;;;;;;;0.49;55.89;99296.72;8311423;28;20253;-73
2022/12/18 10:55:57;;;;;;;32.07;19.43;;;;;;;0.03;57.40;99307.78;8311131;28;20237;-73
2022/12/18 11:00:19;;;;;;;31.03;19.43;;;;;;;-0.31;58.16;99307.94;8311564;28;20267;-72
2022/12/18 11:04:24;;;;;;;32.07;20.83;;;;;;;-0.01;57.19;99310.25;8311376;28;20288;-73
2022/12/18 11:08:28;;;;;;;29.23;19.50;;;;;;;1.75;52.35;99308.81;8293788;28;20241;-73
2022/12/18 11:12:31;;;;;;;28.73;18.67;;;;;;;0.56;54.58;99290.91;8316539;28;20530;-73
2022/12/18 11:16:36;;;;;;;28.93;18.47;;;;;;;0.28;55.52;99286.16;8317282;28;20510;-73
2022/12/18 11:20:40;;;;;;;31.83;18.70;;;;;;;0.18;55.32;99291.06;8316284;28;20244;-73
2022/12/18 11:24:51;;;;;;;31.53;19.80;;;;;;;-0.18;55.82;99283.59;8316649;28;20226;-71
2022/12/18 11:29:18;;;;;;;30.80;20.00;;;;;;;0.67;54.47;99286.00;8316081;28;20501;-73
2022/12/18 11:33:23;;;;;;;32.50;20.27;;;;;;;0.66;54.35;99279.16;8316616;28;20379;-73
2022/12/18 11:37:26;;;;;;;34.27;19.93;;;;;;;0.40;54.69;99271.09;8316237;28;20233;-74
2022/12/18 11:45:56;;;;;;;25.67;16.93;;;;;;;0.48;53.09;99238.94;8315149;28;20560;-72
2022/12/18 11:50:02;;;;;;;31.57;18.93;;;;;;;-0.35;56.42;99260.34;8317140;28;20265;-72
2022/12/18 11:54:12;;;;;;;28.07;17.97;;;;;;;0.42;54.46;99254.13;8315729;28;20237;-73
2022/12/18 11:58:30;;;;;;;29.40;17.63;;;;;;;0.70;53.73;99240.13;8315547;28;20233;-72
2022/12/18 12:02:47;;;;;;;28.77;18.87;;;;;;;-0.16;55.79;99256.47;8315433;28;20238;-72
2022/12/18 12:06:58;;;;;;;27.90;17.93;;;;;;;1.15;52.50;99251.00;8315016;28;20312;-72
2022/12/18 12:11:10;;;;;;;43.90;22.23;;;;;;;2.23;83.67;99260.81;8314865;28;20230;-71
2022/12/18 12:15:24;;;;;;;31.03;19.33;;;;;;;2.19;52.73;99243.72;8314994;28;20246;-72
2022/12/18 12:19:36;;;;;;;32.87;19.03;;;;;;;1.79;51.42;99229.66;8315025;28;20430;-72
2022/12/18 12:23:43;;;;;;;32.40;20.40;;;;;;;1.62;50.82;99227.78;8314068;28;20234;-74
2022/12/18 12:27:51;;;;;;;43.23;26.03;;;;;;;1.52;52.77;99231.94;8314687;28;20226;-75
2022/12/18 12:32:05;;;;;;;30.70;19.43;;;;;;;1.03;52.46;99238.06;8314199;28;20226;-74
2022/12/18 12:36:14;;;;;;;38.87;24.03;;;;;;;1.12;52.52;99238.19;8314488;28;20397;-73
2022/12/18 12:40:19;;;;;;;28.90;17.87;;;;;;;1.26;52.52;99225.63;8454673;22;20418;-67
2022/12/18 12:44:45;;;;;;;29.67;18.53;;;;;;;0.52;54.23;99229.66;8347505;28;20306;-67
2022/12/18 12:49:02;;;;;;;30.00;17.43;;;;;;;-0.11;53.63;99091.91;8347111;28;20530;-67
2022/12/18 12:53:08;;;;;;;27.90;18.03;;;;;;;0.88;53.32;99203.84;8346773;28;20642;-67
2022/12/18 12:57:16;;;;;;;30.77;22.63;;;;;;;0.97;53.27;99219.28;8345294;28;20552;-67
2022/12/18 13:01:27;;;;;;;28.50;18.50;;;;;;;1.46;52.88;99213.09;8346529;28;20229;-66
2022/12/18 13:05:35;;;;;;;27.67;17.07;;;;;;;0.71;54.02;99218.91;8345657;28;20233;-67
2022/12/18 13:10:22;;;;;;;28.43;17.47;;;;;;;1.40;52.40;99207.94;8345650;28;20287;-67
2022/12/18 13:14:31;;;;;;;30.30;16.97;;;;;;;0.76;53.70;99209.63;8346482;28;20229;-67
2022/12/18 13:18:34;;;;;;;26.00;16.47;;;;;;;1.51;52.54;99198.72;8346533;28;20559;-67
2022/12/18 13:22:39;;;;;;;26.40;16.50;;;;;;;1.31;52.17;99188.25;8346630;28;20237;-67
2022/12/18 13:26:42;;;;;;;26.93;16.90;;;;;;;0.96;52.70;99193.75;8345263;28;20244;-67
2022/12/18 13:30:50;;;;;;;29.23;16.43;;;;;;;0.30;54.73;99197.84;8345231;28;20295;-70
2022/12/18 13:35:36;;;;;;;29.23;17.13;;;;;;;0.61;53.71;99201.75;8344199;28;20297;-67
2022/12/18 13:39:40;;;;;;;27.93;17.40;;;;;;;-0.05;55.48;99213.41;8344582;28;20229;-67
2022/12/18 13:43:45;;;;;;;28.60;17.60;;;;;;;1.02;53.53;99198.94;8313408;28;20234;-67
2022/12/18 13:47:48;;;;;;;32.70;19.50;;;;;;;0.94;53.86;99203.09;8312371;28;20233;-67
2022/12/18 13:51:53;;;;;;;37.80;22.73;;;;;;;0.97;53.93;99175.03;8312044;28;20230;-67
2022/12/18 13:55:57;;;;;;;46.73;24.67;;;;;;;0.43;55.08;99181.06;8311433;28;20245;-68
2022/12/18 14:00:24;;;;;;;68.17;29.53;;;;;;;0.66;53.82;99133.81;8311483;28;20509;-67
2022/12/18 14:04:29;;;;;;;42.47;26.37;;;;;;;0.65;54.04;99100.66;8311355;28;20229;-68
2022/12/18 14:08:38;;;;;;;35.67;20.43;;;;;;;0.89;53.93;99171.53;8312201;28;20442;-68
2022/12/18 14:12:58;;;;;;;51.07;26.57;;;;;;;1.24;53.91;99168.59;8311695;28;20238;-67
2022/12/18 14:17:10;;;;;;;30.73;23.20;;;;;;;0.73;54.50;99161.13;8309569;28;20647;-67
2022/12/18 14:21:19;;;;;;;30.43;20.10;;;;;;;0.60;54.40;99182.19;8311863;28;20238;-68
2022/12/18 14:25:24;;;;;;;32.87;19.17;;;;;;;0.71;54.52;99188.31;8311134;28;20230;-68
2022/12/18 14:29:30;;;;;;;30.10;19.07;;;;;;;0.47;55.16;99188.78;8312056;28;20528;-67
2022/12/18 14:33:33;;;;;;;27.57;17.73;;;;;;;0.72;54.68;99195.13;8312181;28;20237;-67
2022/12/18 14:37:36;;;;;;;28.00;16.77;;;;;;;0.93;53.27;99198.81;8312518;28;20314;-68
2022/12/18 14:41:38;;;;;;;30.80;18.57;;;;;;;0.32;54.92;99184.28;8311495;28;20525;-68
2022/12/18 14:45:44;;;;;;;32.13;18.40;;;;;;;0.18;54.44;99105.09;8314993;28;20250;-68
2022/12/18 14:49:47;;;;;;;30.17;18.43;;;;;;;0.36;54.73;99205.59;8317449;28;20226;-68
2022/12/18 14:53:54;;;;;;;29.70;17.80;;;;;;;-0.32;58.36;99190.84;8317753;28;20257;-68
2022/12/18 14:57:58;;;;;;;30.00;18.73;;;;;;;0.19;55.59;99174.72;8317228;28;20233;-67
2022/12/18 15:02:05;;;;;;;33.80;20.93;;;;;;;-0.04;56.52;99170.13;8317782;28;20517;-68
2022/12/18 15:06:19;;;;;;;36.70;21.57;;;;;;;-0.27;56.33;99163.75;8317621;28;20238;-68
2022/12/18 15:10:25;;;;;;;30.83;18.93;;;;;;;-0.36;57.27;99205.19;8317743;28;20225;-67
2022/12/18 15:14:39;;;;;;;38.33;22.17;;;;;;;0.32;55.40;99207.22;8317471;28;20293;-67
2022/12/18 15:18:47;;;;;;;42.83;23.70;;;;;;;0.09;55.42;99185.59;8317537;28;20238;-68
2022/12/18 15:22:50;;;;;;;34.17;19.70;;;;;;;0.63;54.50;99196.66;8317374;28;20234;-69
2022/12/18 15:26:53;;;;;;;28.87;18.30;;;;;;;0.25;56.16;99204.53;8316946;28;20226;-69
2022/12/18 15:31:05;;;;;;;31.53;19.80;;;;;;;0.48;54.66;99198.16;8317145;28;20297;-68
2022/12/18 15:35:15;;;;;;;28.57;18.27;;;;;;;0.52;54.59;99194.81;8317327;28;20229;-69
2022/12/18 15:39:18;;;;;;;30.87;18.40;;;;;;;0.36;54.54;99196.28;8317316;28;20226;-67
2022/12/18 15:43:37;;;;;;;32.87;20.47;;;;;;;0.73;54.07;99189.19;8317303;28;20234;-68
2022/12/18 15:47:41;;;;;;;30.90;18.80;;;;;;;0.39;54.42;99210.75;8316567;28;20226;-68
2022/12/18 15:51:52;;;;;;;29.50;19.20;;;;;;;0.57;53.55;99212.72;8316528;28;20232;-68
2022/12/18 16:00:16;;;;;;;30.90;20.10;;;;;;;0.54;54.54;99203.34;8309933;28;20221;-68
2022/12/18 16:04:21;;;;;;;29.40;20.13;;;;;;;0.41;54.35;99211.63;8328047;28;20513;-68
2022/12/18 16:08:25;;;;;;;31.13;20.60;;;;;;;0.90;52.64;99207.28;8308083;28;20285;-68
2022/12/18 16:12:28;;;;;;;32.33;20.60;;;;;;;0.49;53.13;99197.31;8316320;28;20402;-67
2022/12/18 16:16:31;;;;;;;31.57;20.33;;;;;;;0.06;55.02;99188.97;8315854;28;20322;-67
2022/12/18 16:20:34;;;;;;;35.10;21.63;;;;;;;0.18;54.39;99208.69;8316012;28;20226;-68
2022/12/18 16:24:38;;;;;;;37.60;22.10;;;;;;;-0.28;56.02;99200.25;8315752;28;20226;-67
2022/12/18 16:28:41;;;;;;;35.13;21.33;;;;;;;-0.12;55.49;99173.34;8315826;28;20226;-68
2022/12/18 16:32:50;;;;;;;33.83;21.23;;;;;;;-0.83;57.06;99185.59;8315567;28;20314;-68
2022/12/18 16:36:53;;;;;;;32.17;19.47;;;;;;;-0.85;57.50;99192.31;8315147;28;20248;-68
2022/12/18 16:45:19;;;;;;;29.43;17.67;;;;;;;-1.39;59.36;99202.97;8314835;28;20234;-67
2022/12/18 16:49:22;;;;;;;28.37;17.27;;;;;;;-1.21;59.58;99188.16;8306980;28;20237;-67
2022/12/18 16:53:33;;;;;;;31.27;18.77;;;;;;;-1.48;60.56;99193.47;8314851;28;20230;-68
2022/12/18 16:57:38;;;;;;;32.90;19.90;;;;;;;-1.16;59.18;99190.81;8314604;28;20234;-67
2022/12/18 17:01:41;;;;;;;32.83;19.73;;;;;;;-1.20;58.92;99178.84;8314472;28;20228;-68
2022/12/18 17:05:44;;;;;;;33.47;19.43;;;;;;;-1.59;60.52;99184.75;8314636;28;20241;-68
2022/12/18 17:09:54;;;;;;;33.97;19.50;;;;;;;-0.72;57.85;99182.38;8313871;28;20277;-68
2022/12/18 17:13:59;;;;;;;32.10;19.40;;;;;;;-1.55;60.85;99183.13;8314261;28;20537;-68
2022/12/18 17:18:03;;;;;;;35.90;20.77;;;;;;;-1.68;61.74;99180.28;8313215;28;20417;-68
2022/12/18 17:22:06;;;;;;;55.93;27.10;;;;;;;-1.40;59.95;99174.19;8313795;28;20227;-66
2022/12/18 17:26:10;;;;;;;64.27;29.70;;;;;;;-1.64;61.10;99169.41;8313807;28;20414;-67
2022/12/18 17:30:15;;;;;;;39.00;21.77;;;;;;;-1.23;60.59;99166.09;8313476;28;20394;-68
2022/12/18 17:34:18;;;;;;;61.50;29.27;;;;;;;-1.42;60.83;99172.44;8313650;28;20233;-69
2022/12/18 17:38:21;;;;;;;91.10;39.10;;;;;;;-1.61;61.52;99179.63;8313446;28;20362;-68
2022/12/18 17:42:25;;;;;;;34.87;20.67;;;;;;;-1.91;62.08;99174.66;8313399;28;20261;-68
2022/12/18 17:46:31;;;;;;;34.27;20.60;;;;;;;-2.17;62.79;99135.91;8313236;28;20234;-67
2022/12/18 17:50:34;;;;;;;32.27;20.00;;;;;;;-1.61;61.82;99172.00;8313366;28;20393;-68
2022/12/18 17:54:40;;;;;;;35.50;20.53;;;;;;;-1.56;60.65;99169.59;8313249;28;20230;-68
2022/12/18 17:58:43;;;;;;;32.67;19.90;;;;;;;-1.78;61.22;99113.19;8313342;28;20486;-68
2022/12/18 18:02:47;;;;;;;40.47;20.77;;;;;;;-1.67;61.62;99160.84;8312724;28;20382;-68
2022/12/18 18:06:50;;;;;;;34.43;20.63;;;;;;;-1.63;61.79;99163.47;8312870;28;20238;-68
2022/12/18 18:13:59;;;;;;;33.23;19.80;;;;;;;-1.44;60.93;99157.16;8311366;28;20230;-68
2022/12/18 18:15:19;;;;;;;38.30;21.97;;;;;;;-1.64;61.32;99156.72;8312958;28;20481;-67
2022/12/18 18:19:24;;;;;;;35.97;20.87;;;;;;;-1.71;62.40;99152.28;8313595;28;20237;-67
2022/12/18 18:23:29;;;;;;;36.83;21.37;;;;;;;-1.36;59.96;99154.78;8319262;28;20486;-67
2022/12/18 18:27:32;;;;;;;36.23;21.20;;;;;;;-1.19;59.08;99161.09;8319026;28;20302;-68
2022/12/18 18:31:41;;;;;;;31.63;19.63;;;;;;;-1.59;60.95;99131.41;8318540;28;20490;-67
2022/12/18 18:35:45;;;;;;;38.27;21.47;;;;;;;-2.08;61.94;99105.69;8318822;28;20230;-68
2022/12/18 18:39:56;;;;;;;36.13;22.97;;;;;;;-0.98;58.81;99144.56;8318421;28;20222;-68
2022/12/18 18:43:59;;;;;;;38.37;23.77;;;;;;;-2.01;61.99;99121.94;8318688;28;20238;-69
2022/12/18 18:48:02;;;;;;;31.90;19.60;;;;;;;-1.25;61.15;99140.63;8318134;28;20241;-69
2022/12/18 18:52:07;;;;;;;37.23;21.57;;;;;;;-1.28;58.52;99143.09;8318154;28;20254;-69
2022/12/18 18:56:11;;;;;;;36.17;21.60;;;;;;;-1.30;60.55;99129.50;8318425;28;20418;-70
2022/12/18 19:00:34;;;;;;;39.23;22.83;;;;;;;-1.15;58.68;99125.56;8317623;28;20312;-69
2022/12/18 19:04:38;;;;;;;33.13;19.47;;;;;;;-1.11;59.91;99129.88;8317581;28;20488;-69
2022/12/18 19:08:50;;;;;;;37.53;22.07;;;;;;;-1.72;61.46;99101.47;8317731;28;20225;-69